createdAt,value
2018-03-20T00:00:36.885Z,42.78
2018-03-20T00:03:04.030Z,42.53
2018-03-20T00:05:31.197Z,41.97
2018-03-20T00:07:57.626Z,43.50
2018-03-20T00:10:24.794Z,44.50
2018-03-20T00:12:51.220Z,44.85
2018-03-20T00:15:17.633Z,42.60
2018-03-20T00:17:44.898Z,46.30
2018-03-20T00:20:12.057Z,42.88
2018-03-20T00:22:38.483Z,45.35
2018-03-20T00:25:05.686Z,47.85
2018-03-20T00:27:32.099Z,49.33
2018-03-20T00:29:58.515Z,47.20
2018-03-20T00:32:24.918Z,48.83
2018-03-20T00:34:51.371Z,52.55
2018-03-20T00:37:18.539Z,48.42
2018-03-20T00:39:44.913Z,50.38
2018-03-20T00:42:11.322Z,49.13
2018-03-20T00:44:37.744Z,47.13
2018-03-20T00:47:04.174Z,45.30
2018-03-20T00:49:30.585Z,35.88
2018-03-20T00:51:57.849Z,33.88
2018-03-20T00:54:25.030Z,32.38
2018-03-20T00:56:51.477Z,30.25
2018-03-20T00:59:17.913Z,30.98
2018-03-20T01:01:44.326Z,31.02
2018-03-20T01:04:10.737Z,31.23
2018-03-20T01:06:37.875Z,29.67
2018-03-20T01:09:04.379Z,31.30
2018-03-20T01:11:30.818Z,35.60
2018-03-20T01:13:57.255Z,34.78
2018-03-20T01:16:23.715Z,33.22
2018-03-20T01:18:50.134Z,34.08
2018-03-20T01:21:16.599Z,36.22
2018-03-20T01:23:43.767Z,38.20
2018-03-20T01:26:10.197Z,37.90
2018-03-20T01:28:36.598Z,38.83
2018-03-20T01:31:03.061Z,37.67
2018-03-20T01:33:30.213Z,39.20
2018-03-20T01:35:57.360Z,38.33
2018-03-20T01:38:24.502Z,38.40
2018-03-20T01:40:51.663Z,37.58
2018-03-20T01:43:18.810Z,35.92
2018-03-20T01:45:45.971Z,37.60
2018-03-20T01:50:39.342Z,27.02
2018-03-20T01:53:17.666Z,26.05
2018-03-20T01:55:44.878Z,26.98
2018-03-20T01:58:12.083Z,33.47
2018-03-20T02:00:38.476Z,28.40
2018-03-20T02:03:04.898Z,28.45
2018-03-20T02:05:31.307Z,24.12
2018-03-20T02:07:57.740Z,25.25
2018-03-20T02:10:24.192Z,22.45
2018-03-20T02:12:50.665Z,33.90
2018-03-20T02:15:17.870Z,35.15
2018-03-20T02:17:44.296Z,33.80
2018-03-20T02:20:10.730Z,34.25
2018-03-20T02:22:37.145Z,34.05
2018-03-20T02:25:04.343Z,35.90
2018-03-20T02:27:30.734Z,34.92
2018-03-20T02:29:57.167Z,33.75
2018-03-20T02:32:24.335Z,35.40
2018-03-20T02:34:50.739Z,35.95
2018-03-20T02:37:17.946Z,34.20
2018-03-20T02:39:44.363Z,33.42
2018-03-20T02:42:10.791Z,33.35
2018-03-20T02:44:37.218Z,34.13
2018-03-20T02:47:03.627Z,33.75
2018-03-20T02:49:30.779Z,33.33
2018-03-20T02:51:57.195Z,33.92
2018-03-20T02:54:23.650Z,33.33
2018-03-20T02:56:50.794Z,35.00
2018-03-20T02:59:17.938Z,34.67
2018-03-20T03:01:44.324Z,35.95
2018-03-20T03:04:10.752Z,35.58
2018-03-20T03:06:37.197Z,38.03
2018-03-20T03:09:03.658Z,36.83
2018-03-20T03:11:30.179Z,35.22
2018-03-20T03:13:56.551Z,36.22
2018-03-20T03:16:23.722Z,36.75
2018-03-20T03:18:50.151Z,38.75
2018-03-20T03:21:17.317Z,39.58
2018-03-20T03:23:43.706Z,38.22
2018-03-20T03:26:10.083Z,39.35
2018-03-20T03:28:37.157Z,37.28
2018-03-20T03:31:03.564Z,37.58
2018-03-20T03:33:29.979Z,38.17
2018-03-20T03:35:57.113Z,37.75
2018-03-20T03:38:23.543Z,38.63
2018-03-20T03:40:49.972Z,36.70
2018-03-20T03:43:16.371Z,38.97
2018-03-20T03:45:42.789Z,37.95
2018-03-20T03:48:09.201Z,38.20
2018-03-20T03:50:36.353Z,38.53
2018-03-20T03:53:03.471Z,36.70
2018-03-20T03:55:29.912Z,36.78
2018-03-20T03:57:56.306Z,37.90
2018-03-20T04:00:23.483Z,41.28
2018-03-20T04:02:49.878Z,37.58
2018-03-20T04:05:16.311Z,37.55
2018-03-20T04:07:42.725Z,38.10
2018-03-20T04:10:09.871Z,37.47
2018-03-20T04:12:36.333Z,35.97
2018-03-20T04:15:02.791Z,35.45
2018-03-20T04:17:29.194Z,35.90
2018-03-20T04:19:55.611Z,36.28
2018-03-20T04:22:22.806Z,34.75
2018-03-20T04:24:49.266Z,34.07
2018-03-20T04:27:15.739Z,34.00
2018-03-20T04:29:43.157Z,33.45
2018-03-20T04:32:09.618Z,32.67
2018-03-20T04:34:36.421Z,33.80
2018-03-20T04:37:02.909Z,33.72
2018-03-20T04:39:30.037Z,31.50
2018-03-20T04:41:56.437Z,32.60
2018-03-20T04:44:22.815Z,30.70
2018-03-20T04:46:49.224Z,29.77
2018-03-20T04:49:15.602Z,30.80
2018-03-20T04:51:42.746Z,28.67
2018-03-20T04:54:09.919Z,28.40
2018-03-20T04:56:36.305Z,29.70
2018-03-20T04:59:02.711Z,29.45
2018-03-20T05:01:29.104Z,29.48
2018-03-20T05:03:56.246Z,29.55
2018-03-20T05:06:22.614Z,28.27
2018-03-20T05:08:49.027Z,30.15
2018-03-20T05:11:16.192Z,29.33
2018-03-20T05:13:42.581Z,28.50
2018-03-20T05:16:09.028Z,29.83
2018-03-20T05:21:53.286Z,29.37
2018-03-20T05:24:19.757Z,28.98
2018-03-20T05:26:47.011Z,28.98
2018-03-20T05:29:14.168Z,27.83
2018-03-20T05:31:41.344Z,29.92
2018-03-20T05:34:07.839Z,27.80
2018-03-20T05:36:35.035Z,28.30
2018-03-20T05:39:01.467Z,27.77
2018-03-20T05:41:28.032Z,28.50
2018-03-20T05:43:54.474Z,29.35
2018-03-20T05:46:26.894Z,28.12
2018-03-20T05:51:59.176Z,26.87
2018-03-20T05:54:26.349Z,27.50
2018-03-20T05:56:52.763Z,29.60
2018-03-20T05:59:19.954Z,29.25
2018-03-20T06:01:46.349Z,29.02
2018-03-20T06:04:13.527Z,27.35
2018-03-20T06:06:39.923Z,27.67
2018-03-20T06:09:07.067Z,25.60
2018-03-20T06:11:33.490Z,28.15
2018-03-20T06:13:59.906Z,25.67
2018-03-20T06:16:26.326Z,25.30
2018-03-20T06:18:52.701Z,23.33
2018-03-20T06:21:19.128Z,26.85
2018-03-20T06:23:45.504Z,24.58
2018-03-20T06:26:11.910Z,25.83
2018-03-20T06:28:38.429Z,24.35
2018-03-20T06:31:04.819Z,25.30
2018-03-20T06:33:31.214Z,24.50
2018-03-20T06:35:57.735Z,26.33
2018-03-20T06:38:24.139Z,26.00
2018-03-20T06:40:50.509Z,25.45
2018-03-20T06:43:16.917Z,24.83
2018-03-20T06:45:43.311Z,23.62
2018-03-20T06:48:17.482Z,24.27
2018-03-20T06:50:43.886Z,24.58
2018-03-20T06:53:10.287Z,24.08
2018-03-20T06:55:37.425Z,19.62
2018-03-20T06:58:04.550Z,14.45
2018-03-20T07:00:30.937Z,12.50
2018-03-20T07:02:57.309Z,15.85
2018-03-20T07:05:23.700Z,20.12
2018-03-20T07:07:50.094Z,17.37
2018-03-20T07:10:16.499Z,16.92
2018-03-20T07:12:42.909Z,18.50
2018-03-20T07:15:09.306Z,17.67
2018-03-20T07:17:35.713Z,18.80
2018-03-20T07:20:02.158Z,18.85
2018-03-20T07:22:28.588Z,13.98
2018-03-20T07:24:54.962Z,15.18
2018-03-20T07:27:22.091Z,18.15
2018-03-20T07:29:49.230Z,13.27
2018-03-20T07:32:15.608Z,16.75
2018-03-20T07:34:42.001Z,18.05
2018-03-20T07:37:08.374Z,17.30
2018-03-20T07:39:34.774Z,18.55
2018-03-20T07:42:01.913Z,17.85
2018-03-20T07:44:28.303Z,17.80
2018-03-20T07:46:54.718Z,21.58
2018-03-20T07:49:21.848Z,22.00
2018-03-20T07:51:48.237Z,20.60
2018-03-20T07:54:14.653Z,20.73
2018-03-20T07:56:41.035Z,22.50
2018-03-20T07:59:07.474Z,22.67
2018-03-20T08:01:33.959Z,20.60
2018-03-20T08:04:00.366Z,21.40
2018-03-20T08:06:27.493Z,21.42
2018-03-20T08:08:53.897Z,19.55
2018-03-20T08:11:20.266Z,20.52
2018-03-20T08:13:46.739Z,20.65
2018-03-20T08:16:13.166Z,20.98
2018-03-20T08:18:39.557Z,21.95
2018-03-20T08:21:05.961Z,21.15
2018-03-20T08:23:32.381Z,20.50
2018-03-20T08:25:58.754Z,20.33
2018-03-20T08:28:25.166Z,20.20
2018-03-20T08:30:51.538Z,20.25
2018-03-20T08:33:17.937Z,20.10
2018-03-20T08:35:44.336Z,18.62
2018-03-20T08:38:10.754Z,17.15
2018-03-20T08:40:37.159Z,17.97
2018-03-20T08:43:03.570Z,19.95
2018-03-20T08:45:29.978Z,17.35
2018-03-20T08:47:56.413Z,16.83
2018-03-20T08:50:22.828Z,17.23
2018-03-20T08:52:49.954Z,17.85
2018-03-20T08:55:16.374Z,18.17
2018-03-20T08:57:42.747Z,17.23
2018-03-20T09:00:09.968Z,16.48
2018-03-20T09:02:36.415Z,16.65
2018-03-20T09:05:02.981Z,15.93
2018-03-20T09:07:30.151Z,16.10
2018-03-20T09:09:56.522Z,15.00
2018-03-20T09:12:22.961Z,15.30
2018-03-20T09:14:49.369Z,15.52
2018-03-20T09:17:15.773Z,15.00
2018-03-20T09:19:42.963Z,14.63
2018-03-20T09:22:09.335Z,14.80
2018-03-20T09:24:35.739Z,15.80
2018-03-20T09:27:02.130Z,16.33
2018-03-20T09:29:29.310Z,15.55
2018-03-20T09:31:55.704Z,15.25
2018-03-20T09:34:22.879Z,14.15
2018-03-20T09:36:49.267Z,15.10
2018-03-20T09:39:15.682Z,15.95
2018-03-20T09:41:42.066Z,14.60
2018-03-20T09:44:09.218Z,14.35
2018-03-20T09:46:36.355Z,14.75
2018-03-20T09:49:03.561Z,15.10
2018-03-20T09:51:29.961Z,13.15
2018-03-20T09:53:57.105Z,13.03
2018-03-20T09:56:24.248Z,14.20
2018-03-20T09:58:50.616Z,15.47
2018-03-20T10:01:17.038Z,14.48
2018-03-20T10:03:43.451Z,14.18
2018-03-20T10:06:10.591Z,14.48
2018-03-20T10:08:37.003Z,14.68
2018-03-20T10:11:03.415Z,14.25
2018-03-20T10:13:29.859Z,15.00
2018-03-20T10:15:56.238Z,15.30
2018-03-20T10:18:23.378Z,14.73
2018-03-20T10:20:50.508Z,15.60
2018-03-20T10:23:16.902Z,15.93
2018-03-20T10:25:43.310Z,13.65
2018-03-20T10:28:10.445Z,14.15
2018-03-20T10:30:36.847Z,15.88
2018-03-20T10:33:03.322Z,14.47
2018-03-20T10:35:29.702Z,18.25
2018-03-20T10:37:56.080Z,15.68
2018-03-20T10:40:22.500Z,15.95
2018-03-20T10:42:48.893Z,15.70
2018-03-20T10:45:15.325Z,15.95
2018-03-20T10:47:41.757Z,14.98
2018-03-20T10:50:08.141Z,14.73
2018-03-20T10:52:34.567Z,15.13
2018-03-20T10:55:00.975Z,15.30
2018-03-20T10:57:27.387Z,13.70
2018-03-20T10:59:53.754Z,14.93
2018-03-20T11:02:20.391Z,14.38
2018-03-20T11:04:46.797Z,15.00
2018-03-20T11:07:13.216Z,15.38
2018-03-20T11:09:40.349Z,14.30
2018-03-20T11:12:06.759Z,15.05
2018-03-20T11:14:33.196Z,13.55
2018-03-20T11:16:59.631Z,13.40
2018-03-20T11:19:26.057Z,14.93
2018-03-20T11:21:52.462Z,14.18
2018-03-20T11:24:18.830Z,13.32
2018-03-20T11:26:45.230Z,10.60
2018-03-20T11:29:11.616Z,13.83
2018-03-20T11:31:38.034Z,13.85
2018-03-20T11:34:04.421Z,13.10
2018-03-20T11:36:30.831Z,13.23
2018-03-20T11:38:57.940Z,11.18
2018-03-20T11:41:24.342Z,13.57
2018-03-20T11:43:50.718Z,11.60
2018-03-20T11:46:17.129Z,10.83
2018-03-20T11:48:43.593Z,11.93
2018-03-20T11:51:09.965Z,11.90
2018-03-20T11:53:37.098Z,12.27
2018-03-20T11:56:03.498Z,12.10
2018-03-20T11:58:29.899Z,12.02
2018-03-20T12:00:56.310Z,11.43
2018-03-20T12:03:23.441Z,12.73
2018-03-20T12:05:49.813Z,10.70
2018-03-20T12:08:28.529Z,11.20
2018-03-20T12:10:54.934Z,10.82
2018-03-20T12:13:21.343Z,10.05
2018-03-20T12:15:47.743Z,11.10
2018-03-20T12:18:14.150Z,10.52
2018-03-20T12:20:41.278Z,11.65
2018-03-20T12:23:07.678Z,11.02
2018-03-20T12:25:34.046Z,13.95
2018-03-20T12:28:00.450Z,10.90
2018-03-20T12:30:26.857Z,10.95
2018-03-20T12:32:53.217Z,11.30
2018-03-20T12:35:19.666Z,11.65
2018-03-20T12:37:46.138Z,12.90
2018-03-20T12:40:13.415Z,12.75
2018-03-20T12:42:39.796Z,11.30
2018-03-20T12:45:06.198Z,11.68
2018-03-20T12:47:32.563Z,11.70
2018-03-20T12:49:58.977Z,11.63
2018-03-20T12:52:25.360Z,11.15
2018-03-20T12:54:52.506Z,10.77
2018-03-20T12:57:18.883Z,12.32
2018-03-20T12:59:45.304Z,11.65
2018-03-20T13:02:11.669Z,12.20
2018-03-20T13:04:38.114Z,11.95
2018-03-20T13:07:04.518Z,11.77
2018-03-20T13:09:30.914Z,11.82
2018-03-20T13:11:58.146Z,11.38
2018-03-20T13:14:25.259Z,12.65
2018-03-20T13:16:51.702Z,14.10
2018-03-20T13:19:18.112Z,12.48
2018-03-20T13:21:44.503Z,11.55
2018-03-20T13:24:10.920Z,10.48
2018-03-20T13:26:37.306Z,9.60
2018-03-20T13:29:04.513Z,9.90
2018-03-20T13:31:30.986Z,9.85
2018-03-20T13:33:58.158Z,9.73
2018-03-20T13:36:24.555Z,10.02
2018-03-20T13:38:50.978Z,9.57
2018-03-20T13:41:17.392Z,9.82
2018-03-20T13:43:43.818Z,8.98
2018-03-20T13:46:10.254Z,9.60
2018-03-20T13:48:36.654Z,11.48
2018-03-20T13:51:03.093Z,10.48
2018-03-20T13:53:29.551Z,11.18
2018-03-20T13:55:56.006Z,10.70
2018-03-20T13:58:22.425Z,9.48
2018-03-20T14:00:48.794Z,9.80
2018-03-20T14:03:15.207Z,8.63
2018-03-20T14:05:41.624Z,8.00
2018-03-20T14:08:08.074Z,10.95
2018-03-20T14:10:34.498Z,11.48
2018-03-20T14:13:00.898Z,11.27
2018-03-20T14:15:27.294Z,9.07
2018-03-20T14:17:53.684Z,11.00
2018-03-20T14:20:20.077Z,10.88
2018-03-20T14:22:46.458Z,10.30
2018-03-20T14:25:12.866Z,11.43
2018-03-20T14:27:40.002Z,11.00
2018-03-20T14:30:07.143Z,10.13
2018-03-20T14:32:33.522Z,10.35
2018-03-20T14:34:59.923Z,9.95
2018-03-20T14:37:27.084Z,9.88
2018-03-20T14:39:54.195Z,9.65
2018-03-20T14:42:20.629Z,11.30
2018-03-20T14:44:47.047Z,8.82
2018-03-20T14:47:13.446Z,9.85
2018-03-20T14:49:39.837Z,10.65
2018-03-20T14:52:06.237Z,12.18
2018-03-20T14:54:32.646Z,10.70
2018-03-20T14:56:59.089Z,9.57
2018-03-20T14:59:25.465Z,11.95
2018-03-20T15:01:51.873Z,11.52
2018-03-20T15:04:18.292Z,11.38
2018-03-20T15:06:44.666Z,12.15
2018-03-20T15:09:11.097Z,10.10
2018-03-20T15:11:37.466Z,11.05
2018-03-20T15:14:04.625Z,11.82
2018-03-20T15:16:31.791Z,10.45
2018-03-20T15:18:58.179Z,10.00
2018-03-20T15:21:24.570Z,10.45
2018-03-20T15:23:50.945Z,10.88
2018-03-20T15:26:17.393Z,9.60
2018-03-20T15:28:43.844Z,9.18
2018-03-20T15:31:10.226Z,8.13
2018-03-20T15:33:36.633Z,8.30
2018-03-20T16:49:18.103Z,9.18
2018-03-20T16:51:47.000Z,9.13
2018-03-20T16:54:15.962Z,9.60
2018-03-20T16:56:45.785Z,10.00
2018-03-20T16:59:14.744Z,8.82
2018-03-20T17:01:43.406Z,10.07
2018-03-20T17:04:12.449Z,10.63
2018-03-20T17:06:41.313Z,8.48
2018-03-20T17:09:10.316Z,9.43
2018-03-20T17:55:32.684Z,10.32
2018-03-20T17:57:59.091Z,10.48
2018-03-20T18:00:26.271Z,10.30
2018-03-20T18:02:52.714Z,10.50
2018-03-20T18:05:19.106Z,10.50
2018-03-20T18:07:47.244Z,9.52
2018-03-20T18:10:13.674Z,10.82
2018-03-20T18:12:40.105Z,9.88
2018-03-20T18:15:06.519Z,11.50
2018-03-20T18:17:32.918Z,10.75
2018-03-20T18:20:00.076Z,11.57
2018-03-20T18:22:27.279Z,11.45
2018-03-20T18:24:53.680Z,10.52
2018-03-20T18:27:20.128Z,9.75
2018-03-20T18:29:46.675Z,9.32
2018-03-20T18:32:13.063Z,12.63
2018-03-20T18:34:40.236Z,12.07
2018-03-20T18:37:06.680Z,10.20
2018-03-20T18:39:33.109Z,13.50
2018-03-20T18:41:59.520Z,12.43
2018-03-20T18:44:26.650Z,11.50
2018-03-20T18:46:53.063Z,12.10
2018-03-20T18:49:19.487Z,13.07
2018-03-20T18:51:45.894Z,14.00
2018-03-20T18:54:12.315Z,13.25
2018-03-20T18:56:39.497Z,13.52
2018-03-20T18:59:05.898Z,14.43
2018-03-20T19:01:33.058Z,14.50
2018-03-20T19:03:59.488Z,14.40
2018-03-20T19:06:26.658Z,15.07
2018-03-20T19:08:53.082Z,14.32
2018-03-20T19:11:20.493Z,14.82
2018-03-20T19:13:47.687Z,14.68
2018-03-20T19:16:14.858Z,16.17
2018-03-20T19:18:41.272Z,16.65
2018-03-20T19:21:08.425Z,16.85
2018-03-20T19:23:36.349Z,15.45
2018-03-20T19:26:02.782Z,16.30
2018-03-20T19:28:29.184Z,16.23
2018-03-20T19:30:55.597Z,16.60
2018-03-20T19:33:22.734Z,15.98
2018-03-20T19:35:49.914Z,16.80
2018-03-20T19:38:16.318Z,18.25
2018-03-20T19:40:43.460Z,17.80
2018-03-20T19:43:09.874Z,18.42
2018-03-20T19:45:36.286Z,16.92
2018-03-20T19:48:02.723Z,17.23
2018-03-20T19:50:29.150Z,18.50
2018-03-20T19:52:55.579Z,18.77
2018-03-20T19:55:22.007Z,19.10
2018-03-20T19:57:48.426Z,19.17
2018-03-20T20:00:15.601Z,20.90
2018-03-20T20:02:41.991Z,20.90
2018-03-20T20:05:08.430Z,22.30
2018-03-20T20:07:35.638Z,23.55
2018-03-20T20:10:02.077Z,22.98
2018-03-20T20:12:28.461Z,24.40
2018-03-20T20:14:55.647Z,24.70
2018-03-20T20:17:22.041Z,25.10
2018-03-20T20:19:49.166Z,24.85
2018-03-20T20:22:15.586Z,26.17
2018-03-20T20:24:41.991Z,26.48
2018-03-20T20:27:08.402Z,22.58
2018-03-20T20:29:35.559Z,23.08
2018-03-20T20:32:01.946Z,23.70
2018-03-20T20:34:28.418Z,21.58
2018-03-20T20:36:54.786Z,23.23
2018-03-20T20:39:21.188Z,23.20
2018-03-20T20:41:48.337Z,24.73
2018-03-20T20:44:15.459Z,23.77
2018-03-20T20:46:41.862Z,23.27
2018-03-20T20:49:08.245Z,26.10
2018-03-20T20:51:34.665Z,23.98
2018-03-20T20:54:01.048Z,25.60
2018-03-20T20:56:27.481Z,24.65
2018-03-20T20:58:53.907Z,24.60
2018-03-20T21:01:20.298Z,24.70
2018-03-20T21:03:46.743Z,22.30
2018-03-20T21:06:13.153Z,26.73
2018-03-20T21:08:39.563Z,25.33
2018-03-20T21:11:05.938Z,27.30
2018-03-20T21:13:32.341Z,28.87
2018-03-20T21:15:58.763Z,28.85
2018-03-20T21:18:25.162Z,29.27
2018-03-20T21:20:52.317Z,27.58
2018-03-20T21:23:19.457Z,29.45
2018-03-20T21:25:45.878Z,29.02
2018-03-20T21:28:12.283Z,29.87
2018-03-20T21:30:38.699Z,30.15
2018-03-20T21:33:05.152Z,31.20
2018-03-20T21:35:31.514Z,29.23
2018-03-20T21:37:57.907Z,28.55
2018-03-20T21:40:24.329Z,28.80
2018-03-20T21:42:50.726Z,30.60
2018-03-20T21:45:17.884Z,28.53
2018-03-20T21:47:44.283Z,29.67
2018-03-20T21:50:10.730Z,28.65
2018-03-20T21:52:37.131Z,29.15
2018-03-20T21:55:03.644Z,29.67
2018-03-20T21:57:30.799Z,27.73
2018-03-20T21:59:57.206Z,32.08
2018-03-20T22:02:23.695Z,32.72
2018-03-20T22:04:50.077Z,33.70
2018-03-20T22:07:16.492Z,30.67
2018-03-20T22:09:42.878Z,31.55
2018-03-20T22:12:09.331Z,32.10
2018-03-20T22:14:35.720Z,31.55
2018-03-20T22:17:02.942Z,32.58
2018-03-20T22:19:29.406Z,33.95
2018-03-20T22:21:56.595Z,33.15
2018-03-20T22:24:23.003Z,31.65
2018-03-20T22:26:50.218Z,33.05
2018-03-20T22:29:16.617Z,32.78
2018-03-20T22:31:42.994Z,31.37
2018-03-20T22:34:09.417Z,31.98
2018-03-20T22:36:35.821Z,32.72
2018-03-20T22:39:02.247Z,34.58
2018-03-20T22:41:28.686Z,35.88
2018-03-20T22:43:55.084Z,34.15
2018-03-20T22:46:21.489Z,34.28
2018-03-20T22:48:47.870Z,35.25
2018-03-20T22:51:14.304Z,35.05
2018-03-20T22:53:41.463Z,36.40
2018-03-20T22:56:07.835Z,39.35
2018-03-20T22:58:34.232Z,35.70
2018-03-20T23:01:00.627Z,37.70
2018-03-20T23:03:27.039Z,37.95
2018-03-20T23:05:53.476Z,37.72
2018-03-20T23:08:19.853Z,39.67
2018-03-20T23:10:46.992Z,39.92
2018-03-20T23:13:14.142Z,37.63
2018-03-20T23:15:41.274Z,36.95
2018-03-20T23:18:07.678Z,38.95
2018-03-20T23:20:34.083Z,37.60
2018-03-20T23:23:00.626Z,40.10
2018-03-20T23:25:34.166Z,39.78
2018-03-20T23:28:00.551Z,39.33
2018-03-20T23:30:27.746Z,39.70
2018-03-20T23:32:54.252Z,39.65
2018-03-20T23:35:21.345Z,40.28
2018-03-20T23:37:47.756Z,42.20
2018-03-20T23:40:14.390Z,40.20
2018-03-20T23:42:40.806Z,40.75
2018-03-20T23:45:07.195Z,40.83
2018-03-20T23:47:33.659Z,42.47
2018-03-20T23:50:00.784Z,40.33
2018-03-20T23:52:27.198Z,42.42
2018-03-20T23:54:53.577Z,41.58
2018-03-20T23:57:20.718Z,41.77
2018-03-20T23:59:47.117Z,42.90
